sensor_id;sensor_type;location;lat;lon;timestamp;pressure;altitude;pressure_sealevel;temperature
67501;BMP180;54349;52.528;19.760;2022-12-22T00:00:11;100080.40;;;22.70
67501;BMP180;54349;52.528;19.760;2022-12-22T00:03:18;100076.00;;;22.76
67501;BMP180;54349;52.528;19.760;2022-12-22T00:06:08;100077.00;;;22.80
67501;BMP180;54349;52.528;19.760;2022-12-22T00:08:55;100074.60;;;22.84
67501;BMP180;54349;52.528;19.760;2022-12-22T00:11:42;100069.20;;;22.90
67501;BMP180;54349;52.528;19.760;2022-12-22T00:14:30;100063.80;;;22.90
67501;BMP180;54349;52.528;19.760;2022-12-22T00:17:27;100059.60;;;23.00
67501;BMP180;54349;52.528;19.760;2022-12-22T00:20:19;100063.60;;;23.00
67501;BMP180;54349;52.528;19.760;2022-12-22T00:23:09;100066.40;;;23.00
67501;BMP180;54349;52.528;19.760;2022-12-22T00:25:57;100069.80;;;23.06
67501;BMP180;54349;52.528;19.760;2022-12-22T00:28:45;100070.60;;;23.08
67501;BMP180;54349;52.528;19.760;2022-12-22T00:31:33;100074.60;;;23.10
67501;BMP180;54349;52.528;19.760;2022-12-22T00:34:21;100076.40;;;23.14
67501;BMP180;54349;52.528;19.760;2022-12-22T00:37:11;100086.80;;;23.20
67501;BMP180;54349;52.528;19.760;2022-12-22T00:40:00;100084.20;;;23.20
67501;BMP180;54349;52.528;19.760;2022-12-22T00:42:47;100085.60;;;23.30
67501;BMP180;54349;52.528;19.760;2022-12-22T00:45:35;100070.20;;;23.30
67501;BMP180;54349;52.528;19.760;2022-12-22T00:48:25;100073.80;;;23.32
67501;BMP180;54349;52.528;19.760;2022-12-22T00:51:12;100076.80;;;23.30
67501;BMP180;54349;52.528;19.760;2022-12-22T00:54:00;100081.40;;;23.30
67501;BMP180;54349;52.528;19.760;2022-12-22T00:56:46;100081.80;;;23.30
67501;BMP180;54349;52.528;19.760;2022-12-22T00:59:33;100085.00;;;23.30
67501;BMP180;54349;52.528;19.760;2022-12-22T01:02:20;100076.40;;;23.30
67501;BMP180;54349;52.528;19.760;2022-12-22T01:05:08;100079.20;;;23.30
67501;BMP180;54349;52.528;19.760;2022-12-22T01:07:55;100077.20;;;23.30
67501;BMP180;54349;52.528;19.760;2022-12-22T01:10:42;100072.80;;;23.26
67501;BMP180;54349;52.528;19.760;2022-12-22T01:13:29;100069.80;;;23.20
67501;BMP180;54349;52.528;19.760;2022-12-22T01:16:16;100061.00;;;23.20
67501;BMP180;54349;52.528;19.760;2022-12-22T01:19:03;100057.80;;;23.20
67501;BMP180;54349;52.528;19.760;2022-12-22T01:21:50;100053.20;;;23.20
67501;BMP180;54349;52.528;19.760;2022-12-22T01:24:37;100049.80;;;23.20
67501;BMP180;54349;52.528;19.760;2022-12-22T01:27:23;100045.00;;;23.20
67501;BMP180;54349;52.528;19.760;2022-12-22T01:30:11;100042.00;;;23.20
67501;BMP180;54349;52.528;19.760;2022-12-22T01:32:58;100045.00;;;23.20
67501;BMP180;54349;52.528;19.760;2022-12-22T01:35:44;100036.00;;;23.16
67501;BMP180;54349;52.528;19.760;2022-12-22T01:38:31;100040.60;;;23.10
67501;BMP180;54349;52.528;19.760;2022-12-22T01:41:20;100036.00;;;23.10
67501;BMP180;54349;52.528;19.760;2022-12-22T01:44:16;100038.80;;;23.00
67501;BMP180;54349;52.528;19.760;2022-12-22T01:50:34;100038.80;;;22.90
67501;BMP180;54349;52.528;19.760;2022-12-22T01:53:26;100040.80;;;22.90
67501;BMP180;54349;52.528;19.760;2022-12-22T01:56:13;100039.00;;;22.80
67501;BMP180;54349;52.528;19.760;2022-12-22T01:59:03;100039.00;;;22.80
67501;BMP180;54349;52.528;19.760;2022-12-22T02:01:50;100034.80;;;22.76
67501;BMP180;54349;52.528;19.760;2022-12-22T02:04:43;100041.20;;;22.70
67501;BMP180;54349;52.528;19.760;2022-12-22T02:14:48;100041.60;;;22.60
67501;BMP180;54349;52.528;19.760;2022-12-22T02:17:58;100039.40;;;22.50
67501;BMP180;54349;52.528;19.760;2022-12-22T02:21:03;100042.80;;;22.48
67501;BMP180;54349;52.528;19.760;2022-12-22T02:24:06;100042.80;;;22.40
67501;BMP180;54349;52.528;19.760;2022-12-22T02:26:59;100040.60;;;22.40
67501;BMP180;54349;52.528;19.760;2022-12-22T02:29:52;100036.20;;;22.38
67501;BMP180;54349;52.528;19.760;2022-12-22T02:32:43;100041.20;;;22.30
67501;BMP180;54349;52.528;19.760;2022-12-22T02:36:59;100045.00;;;22.30
67501;BMP180;54349;52.528;19.760;2022-12-22T02:39:58;100041.00;;;22.20
67501;BMP180;54349;52.528;19.760;2022-12-22T02:46:01;100030.00;;;22.14
67501;BMP180;54349;52.528;19.760;2022-12-22T02:52:01;100025.80;;;22.10
67501;BMP180;54349;52.528;19.760;2022-12-22T02:54:51;100027.80;;;22.00
67501;BMP180;54349;52.528;19.760;2022-12-22T02:57:38;100021.40;;;22.00
67501;BMP180;54349;52.528;19.760;2022-12-22T03:00:24;100023.20;;;22.00
67501;BMP180;54349;52.528;19.760;2022-12-22T03:03:11;100023.20;;;21.90
67501;BMP180;54349;52.528;19.760;2022-12-22T03:05:59;100024.20;;;21.90
67501;BMP180;54349;52.528;19.760;2022-12-22T03:08:46;100017.40;;;21.90
67501;BMP180;54349;52.528;19.760;2022-12-22T03:11:33;100019.00;;;21.80
67501;BMP180;54349;52.528;19.760;2022-12-22T03:14:20;100019.20;;;21.80
67501;BMP180;54349;52.528;19.760;2022-12-22T03:17:07;100021.20;;;21.80
67501;BMP180;54349;52.528;19.760;2022-12-22T03:19:54;100021.00;;;21.78
67501;BMP180;54349;52.528;19.760;2022-12-22T03:22:41;100019.40;;;21.70
67501;BMP180;54349;52.528;19.760;2022-12-22T03:25:28;100023.20;;;21.70
67501;BMP180;54349;52.528;19.760;2022-12-22T03:28:15;100026.40;;;21.70
67501;BMP180;54349;52.528;19.760;2022-12-22T03:30:43;100023.80;;;21.64
67501;BMP180;54349;52.528;19.760;2022-12-22T03:33:11;100020.00;;;21.60
67501;BMP180;54349;52.528;19.760;2022-12-22T03:35:39;100014.60;;;21.60
67501;BMP180;54349;52.528;19.760;2022-12-22T03:38:07;100015.00;;;21.60
67501;BMP180;54349;52.528;19.760;2022-12-22T03:40:35;100010.80;;;21.52
67501;BMP180;54349;52.528;19.760;2022-12-22T03:43:03;100008.20;;;21.50
67501;BMP180;54349;52.528;19.760;2022-12-22T03:45:54;100010.20;;;21.50
67501;BMP180;54349;52.528;19.760;2022-12-22T03:48:43;100013.40;;;21.50
67501;BMP180;54349;52.528;19.760;2022-12-22T03:51:33;100017.00;;;21.44
67501;BMP180;54349;52.528;19.760;2022-12-22T03:54:01;100015.80;;;21.40
67501;BMP180;54349;52.528;19.760;2022-12-22T03:56:30;100016.60;;;21.40
67501;BMP180;54349;52.528;19.760;2022-12-22T03:58:58;100010.60;;;21.40
67501;BMP180;54349;52.528;19.760;2022-12-22T04:01:26;100004.60;;;21.40
67501;BMP180;54349;52.528;19.760;2022-12-22T04:03:55;99994.80;;;21.30
67501;BMP180;54349;52.528;19.760;2022-12-22T04:06:23;99993.20;;;21.30
67501;BMP180;54349;52.528;19.760;2022-12-22T04:08:51;99992.20;;;21.30
67501;BMP180;54349;52.528;19.760;2022-12-22T04:11:19;99991.00;;;21.30
67501;BMP180;54349;52.528;19.760;2022-12-22T04:14:06;99991.40;;;21.30
67501;BMP180;54349;52.528;19.760;2022-12-22T04:16:34;99991.40;;;21.30
67501;BMP180;54349;52.528;19.760;2022-12-22T04:19:02;99991.20;;;21.22
67501;BMP180;54349;52.528;19.760;2022-12-22T04:21:31;99992.40;;;21.20
67501;BMP180;54349;52.528;19.760;2022-12-22T04:23:59;99982.80;;;21.20
67501;BMP180;54349;52.528;19.760;2022-12-22T04:26:28;99981.00;;;21.20
67501;BMP180;54349;52.528;19.760;2022-12-22T04:28:56;99980.20;;;21.20
67501;BMP180;54349;52.528;19.760;2022-12-22T04:31:24;99979.00;;;21.14
67501;BMP180;54349;52.528;19.760;2022-12-22T04:33:52;99980.80;;;21.10
67501;BMP180;54349;52.528;19.760;2022-12-22T04:36:21;99978.40;;;21.10
67501;BMP180;54349;52.528;19.760;2022-12-22T04:38:49;99980.40;;;21.10
67501;BMP180;54349;52.528;19.760;2022-12-22T04:41:17;99977.40;;;21.10
67501;BMP180;54349;52.528;19.760;2022-12-22T04:43:45;99973.60;;;21.10
67501;BMP180;54349;52.528;19.760;2022-12-22T04:46:13;99980.00;;;21.10
67501;BMP180;54349;52.528;19.760;2022-12-22T04:48:41;99978.60;;;21.12
67501;BMP180;54349;52.528;19.760;2022-12-22T04:51:09;99978.00;;;21.20
67501;BMP180;54349;52.528;19.760;2022-12-22T04:53:37;99988.80;;;21.30
67501;BMP180;54349;52.528;19.760;2022-12-22T04:56:06;99987.80;;;21.40
67501;BMP180;54349;52.528;19.760;2022-12-22T04:58:35;99982.00;;;21.50
67501;BMP180;54349;52.528;19.760;2022-12-22T05:01:09;99978.00;;;21.52
67501;BMP180;54349;52.528;19.760;2022-12-22T05:03:38;99971.60;;;21.60
67501;BMP180;54349;52.528;19.760;2022-12-22T05:06:07;99964.20;;;21.70
67501;BMP180;54349;52.528;19.760;2022-12-22T05:08:36;99958.00;;;21.78
67501;BMP180;54349;52.528;19.760;2022-12-22T05:11:05;99953.20;;;21.80
67501;BMP180;54349;52.528;19.760;2022-12-22T05:13:34;99956.40;;;21.90
67501;BMP180;54349;52.528;19.760;2022-12-22T05:18:33;99942.40;;;22.00
67501;BMP180;54349;52.528;19.760;2022-12-22T05:21:14;99946.40;;;22.10
67501;BMP180;54349;52.528;19.760;2022-12-22T05:23:43;99942.60;;;22.10
67501;BMP180;54349;52.528;19.760;2022-12-22T05:26:13;99945.40;;;22.10
67501;BMP180;54349;52.528;19.760;2022-12-22T05:28:44;99952.00;;;22.20
67501;BMP180;54349;52.528;19.760;2022-12-22T05:31:24;99954.20;;;22.20
67501;BMP180;54349;52.528;19.760;2022-12-22T05:33:53;99956.20;;;22.30
67501;BMP180;54349;52.528;19.760;2022-12-22T05:36:21;99955.00;;;22.30
67501;BMP180;54349;52.528;19.760;2022-12-22T05:38:49;99954.20;;;22.30
67501;BMP180;54349;52.528;19.760;2022-12-22T05:41:17;99962.00;;;22.30
67501;BMP180;54349;52.528;19.760;2022-12-22T05:43:45;99953.80;;;22.40
67501;BMP180;54349;52.528;19.760;2022-12-22T05:46:13;99959.40;;;22.40
67501;BMP180;54349;52.528;19.760;2022-12-22T05:48:41;99963.80;;;22.40
67501;BMP180;54349;52.528;19.760;2022-12-22T05:51:09;99964.00;;;22.40
67501;BMP180;54349;52.528;19.760;2022-12-22T05:53:38;99971.20;;;22.40
67501;BMP180;54349;52.528;19.760;2022-12-22T05:56:07;99975.60;;;22.40
67501;BMP180;54349;52.528;19.760;2022-12-22T05:58:37;99973.40;;;22.42
67501;BMP180;54349;52.528;19.760;2022-12-22T06:01:06;99975.60;;;22.40
67501;BMP180;54349;52.528;19.760;2022-12-22T06:03:34;99973.60;;;22.40
67501;BMP180;54349;52.528;19.760;2022-12-22T06:06:04;99974.80;;;22.44
67501;BMP180;54349;52.528;19.760;2022-12-22T06:08:32;99972.60;;;22.40
67501;BMP180;54349;52.528;19.760;2022-12-22T06:11:00;99969.60;;;22.40
67501;BMP180;54349;52.528;19.760;2022-12-22T06:13:28;99980.40;;;22.40
67501;BMP180;54349;52.528;19.760;2022-12-22T06:15:56;99973.60;;;22.40
67501;BMP180;54349;52.528;19.760;2022-12-22T06:18:24;99974.80;;;22.40
67501;BMP180;54349;52.528;19.760;2022-12-22T06:20:53;99971.80;;;22.40
67501;BMP180;54349;52.528;19.760;2022-12-22T06:23:22;99967.40;;;22.40
67501;BMP180;54349;52.528;19.760;2022-12-22T06:26:00;99966.40;;;22.40
67501;BMP180;54349;52.528;19.760;2022-12-22T06:28:30;99966.20;;;22.40
67501;BMP180;54349;52.528;19.760;2022-12-22T06:30:57;99974.00;;;22.40
67501;BMP180;54349;52.528;19.760;2022-12-22T06:33:26;99970.60;;;22.40
67501;BMP180;54349;52.528;19.760;2022-12-22T06:35:54;99960.80;;;22.40
67501;BMP180;54349;52.528;19.760;2022-12-22T06:38:26;99957.00;;;22.40
67501;BMP180;54349;52.528;19.760;2022-12-22T06:40:55;99956.80;;;22.36
67501;BMP180;54349;52.528;19.760;2022-12-22T06:43:24;99955.60;;;22.30
67501;BMP180;54349;52.528;19.760;2022-12-22T06:45:52;99949.80;;;22.30
67501;BMP180;54349;52.528;19.760;2022-12-22T06:48:21;99959.80;;;22.30
67501;BMP180;54349;52.528;19.760;2022-12-22T06:50:49;99966.00;;;22.30
67501;BMP180;54349;52.528;19.760;2022-12-22T06:53:17;99964.80;;;22.30
67501;BMP180;54349;52.528;19.760;2022-12-22T06:55:45;99965.40;;;22.30
67501;BMP180;54349;52.528;19.760;2022-12-22T06:58:13;99966.40;;;22.30
67501;BMP180;54349;52.528;19.760;2022-12-22T07:00:41;99967.20;;;22.30
67501;BMP180;54349;52.528;19.760;2022-12-22T07:03:10;99965.40;;;22.30
67501;BMP180;54349;52.528;19.760;2022-12-22T07:05:39;99965.00;;;22.30
67501;BMP180;54349;52.528;19.760;2022-12-22T07:08:07;99963.60;;;22.30
67501;BMP180;54349;52.528;19.760;2022-12-22T07:10:36;99972.20;;;22.30
67501;BMP180;54349;52.528;19.760;2022-12-22T07:13:30;99965.60;;;22.30
67501;BMP180;54349;52.528;19.760;2022-12-22T07:16:05;99960.40;;;22.30
67501;BMP180;54349;52.528;19.760;2022-12-22T07:18:38;99957.00;;;22.32
67501;BMP180;54349;52.528;19.760;2022-12-22T07:21:11;99957.80;;;22.36
67501;BMP180;54349;52.528;19.760;2022-12-22T07:23:40;99963.20;;;22.40
67501;BMP180;54349;52.528;19.760;2022-12-22T07:26:10;99961.40;;;22.40
67501;BMP180;54349;52.528;19.760;2022-12-22T07:28:40;99963.80;;;22.40
67501;BMP180;54349;52.528;19.760;2022-12-22T07:31:16;99961.60;;;22.40
67501;BMP180;54349;52.528;19.760;2022-12-22T07:33:45;99960.20;;;22.50
67501;BMP180;54349;52.528;19.760;2022-12-22T07:36:19;99960.00;;;22.50
67501;BMP180;54349;52.528;19.760;2022-12-22T07:38:50;99964.60;;;22.50
67501;BMP180;54349;52.528;19.760;2022-12-22T07:41:19;99952.80;;;22.50
67501;BMP180;54349;52.528;19.760;2022-12-22T07:44:07;99953.80;;;22.60
67501;BMP180;54349;52.528;19.760;2022-12-22T07:46:37;99950.00;;;22.60
67501;BMP180;54349;52.528;19.760;2022-12-22T07:49:07;99948.20;;;22.60
67501;BMP180;54349;52.528;19.760;2022-12-22T07:51:58;99946.20;;;22.60
67501;BMP180;54349;52.528;19.760;2022-12-22T07:54:27;99945.80;;;22.60
67501;BMP180;54349;52.528;19.760;2022-12-22T07:56:56;99942.80;;;22.60
67501;BMP180;54349;52.528;19.760;2022-12-22T07:59:24;99949.60;;;22.60
67501;BMP180;54349;52.528;19.760;2022-12-22T08:01:52;99943.40;;;22.60
67501;BMP180;54349;52.528;19.760;2022-12-22T08:04:20;99946.20;;;22.60
67501;BMP180;54349;52.528;19.760;2022-12-22T08:06:49;99945.60;;;22.60
67501;BMP180;54349;52.528;19.760;2022-12-22T08:09:17;99947.00;;;22.60
67501;BMP180;54349;52.528;19.760;2022-12-22T08:11:48;99943.80;;;22.60
67501;BMP180;54349;52.528;19.760;2022-12-22T08:14:17;99948.40;;;22.60
67501;BMP180;54349;52.528;19.760;2022-12-22T08:16:45;99948.40;;;22.60
67501;BMP180;54349;52.528;19.760;2022-12-22T08:19:13;99950.80;;;22.60
67501;BMP180;54349;52.528;19.760;2022-12-22T08:21:41;99945.40;;;22.60
67501;BMP180;54349;52.528;19.760;2022-12-22T08:24:20;99942.40;;;22.60
67501;BMP180;54349;52.528;19.760;2022-12-22T08:26:54;99942.20;;;22.60
67501;BMP180;54349;52.528;19.760;2022-12-22T08:32:01;99944.00;;;22.60
67501;BMP180;54349;52.528;19.760;2022-12-22T08:34:30;99938.60;;;22.58
67501;BMP180;54349;52.528;19.760;2022-12-22T08:37:01;99937.40;;;22.60
67501;BMP180;54349;52.528;19.760;2022-12-22T08:39:34;99929.80;;;22.52
67501;BMP180;54349;52.528;19.760;2022-12-22T08:42:06;99932.80;;;22.50
67501;BMP180;54349;52.528;19.760;2022-12-22T08:44:36;99930.60;;;22.50
67501;BMP180;54349;52.528;19.760;2022-12-22T08:47:06;99927.20;;;22.50
67501;BMP180;54349;52.528;19.760;2022-12-22T08:49:43;99922.00;;;22.50
67501;BMP180;54349;52.528;19.760;2022-12-22T08:52:11;99919.20;;;22.50
67501;BMP180;54349;52.528;19.760;2022-12-22T08:54:46;99919.60;;;22.50
67501;BMP180;54349;52.528;19.760;2022-12-22T08:57:14;99920.60;;;22.52
67501;BMP180;54349;52.528;19.760;2022-12-22T08:59:42;99913.00;;;22.50
67501;BMP180;54349;52.528;19.760;2022-12-22T09:02:10;99907.00;;;22.54
67501;BMP180;54349;52.528;19.760;2022-12-22T09:04:38;99905.60;;;22.58
67501;BMP180;54349;52.528;19.760;2022-12-22T09:07:06;99895.00;;;22.60
67501;BMP180;54349;52.528;19.760;2022-12-22T09:09:34;99895.80;;;22.60
67501;BMP180;54349;52.528;19.760;2022-12-22T09:12:03;99892.60;;;22.60
67501;BMP180;54349;52.528;19.760;2022-12-22T09:14:32;99886.60;;;22.60
67501;BMP180;54349;52.528;19.760;2022-12-22T09:17:00;99873.20;;;22.60
67501;BMP180;54349;52.528;19.760;2022-12-22T09:19:29;99871.80;;;22.60
67501;BMP180;54349;52.528;19.760;2022-12-22T09:21:57;99870.80;;;22.60
67501;BMP180;54349;52.528;19.760;2022-12-22T09:24:24;99864.80;;;22.60
67501;BMP180;54349;52.528;19.760;2022-12-22T09:26:53;99857.20;;;22.60
67501;BMP180;54349;52.528;19.760;2022-12-22T09:29:21;99848.20;;;22.60
67501;BMP180;54349;52.528;19.760;2022-12-22T09:31:49;99838.20;;;22.60
67501;BMP180;54349;52.528;19.760;2022-12-22T09:34:17;99843.60;;;22.60
67501;BMP180;54349;52.528;19.760;2022-12-22T09:36:46;99835.80;;;22.60
67501;BMP180;54349;52.528;19.760;2022-12-22T09:39:15;99828.20;;;22.66
67501;BMP180;54349;52.528;19.760;2022-12-22T09:41:56;99830.60;;;22.70
67501;BMP180;54349;52.528;19.760;2022-12-22T09:44:36;99825.20;;;22.70
67501;BMP180;54349;52.528;19.760;2022-12-22T09:47:31;99819.60;;;22.70
67501;BMP180;54349;52.528;19.760;2022-12-22T09:50:06;99804.40;;;22.70
67501;BMP180;54349;52.528;19.760;2022-12-22T09:52:46;99803.20;;;22.70
67501;BMP180;54349;52.528;19.760;2022-12-22T09:55:44;99809.40;;;22.70
67501;BMP180;54349;52.528;19.760;2022-12-22T09:58:23;99798.40;;;22.70
67501;BMP180;54349;52.528;19.760;2022-12-22T10:07:25;99791.00;;;22.80
67501;BMP180;54349;52.528;19.760;2022-12-22T10:09:53;99791.80;;;22.80
67501;BMP180;54349;52.528;19.760;2022-12-22T10:12:24;99787.40;;;22.80
67501;BMP180;54349;52.528;19.760;2022-12-22T10:14:53;99787.20;;;22.80
67501;BMP180;54349;52.528;19.760;2022-12-22T10:17:32;99780.80;;;22.80
67501;BMP180;54349;52.528;19.760;2022-12-22T10:20:26;99781.40;;;22.80
67501;BMP180;54349;52.528;19.760;2022-12-22T10:22:57;99773.60;;;22.80
67501;BMP180;54349;52.528;19.760;2022-12-22T10:25:39;99768.80;;;22.80
67501;BMP180;54349;52.528;19.760;2022-12-22T10:28:56;99769.00;;;22.80
67501;BMP180;54349;52.528;19.760;2022-12-22T10:31:30;99768.00;;;22.80
67501;BMP180;54349;52.528;19.760;2022-12-22T10:34:15;99759.80;;;22.80
67501;BMP180;54349;52.528;19.760;2022-12-22T10:36:51;99754.40;;;22.80
67501;BMP180;54349;52.528;19.760;2022-12-22T10:39:24;99743.20;;;22.80
67501;BMP180;54349;52.528;19.760;2022-12-22T10:42:06;99739.60;;;22.80
67501;BMP180;54349;52.528;19.760;2022-12-22T10:44:37;99727.20;;;22.80
67501;BMP180;54349;52.528;19.760;2022-12-22T10:47:21;99722.00;;;22.80
67501;BMP180;54349;52.528;19.760;2022-12-22T10:49:58;99725.00;;;22.80
67501;BMP180;54349;52.528;19.760;2022-12-22T10:52:29;99721.00;;;22.80
67501;BMP180;54349;52.528;19.760;2022-12-22T10:55:19;99719.40;;;22.84
67501;BMP180;54349;52.528;19.760;2022-12-22T10:57:49;99710.60;;;22.90
67501;BMP180;54349;52.528;19.760;2022-12-22T11:00:23;99710.40;;;22.90
67501;BMP180;54349;52.528;19.760;2022-12-22T11:02:58;99713.40;;;22.90
67501;BMP180;54349;52.528;19.760;2022-12-22T11:05:30;99704.20;;;22.90
67501;BMP180;54349;52.528;19.760;2022-12-22T11:08:19;99697.60;;;22.90
67501;BMP180;54349;52.528;19.760;2022-12-22T11:10:57;99698.20;;;22.90
67501;BMP180;54349;52.528;19.760;2022-12-22T11:16:46;99694.60;;;22.90
67501;BMP180;54349;52.528;19.760;2022-12-22T11:22:59;99690.80;;;22.90
67501;BMP180;54349;52.528;19.760;2022-12-22T11:31:12;99678.20;;;22.90
67501;BMP180;54349;52.528;19.760;2022-12-22T11:37:54;99677.00;;;22.90
67501;BMP180;54349;52.528;19.760;2022-12-22T11:40:32;99667.00;;;22.90
67501;BMP180;54349;52.528;19.760;2022-12-22T11:55:32;99650.80;;;23.00
67501;BMP180;54349;52.528;19.760;2022-12-22T12:04:30;99647.60;;;22.92
67501;BMP180;54349;52.528;19.760;2022-12-22T12:21:13;99622.40;;;22.98
67501;BMP180;54349;52.528;19.760;2022-12-22T12:30:04;99607.20;;;22.90
67501;BMP180;54349;52.528;19.760;2022-12-22T12:33:02;99606.40;;;22.90
67501;BMP180;54349;52.528;19.760;2022-12-22T12:35:48;99607.00;;;22.90
67501;BMP180;54349;52.528;19.760;2022-12-22T12:38:39;99609.20;;;22.90
67501;BMP180;54349;52.528;19.760;2022-12-22T12:44:34;99599.80;;;22.90
67501;BMP180;54349;52.528;19.760;2022-12-22T12:47:05;99595.60;;;22.90
67501;BMP180;54349;52.528;19.760;2022-12-22T12:52:10;99599.00;;;22.80
67501;BMP180;54349;52.528;19.760;2022-12-22T12:54:44;99589.20;;;22.80
67501;BMP180;54349;52.528;19.760;2022-12-22T12:57:46;99590.60;;;22.80
67501;BMP180;54349;52.528;19.760;2022-12-22T13:03:50;99588.60;;;22.80
67501;BMP180;54349;52.528;19.760;2022-12-22T13:12:48;99586.60;;;22.80
67501;BMP180;54349;52.528;19.760;2022-12-22T13:18:00;99581.20;;;22.72
67501;BMP180;54349;52.528;19.760;2022-12-22T13:20:34;99577.60;;;22.70
67501;BMP180;54349;52.528;19.760;2022-12-22T13:23:13;99577.20;;;22.70
67501;BMP180;54349;52.528;19.760;2022-12-22T13:25:52;99572.20;;;22.70
67501;BMP180;54349;52.528;19.760;2022-12-22T13:28:26;99568.20;;;22.70
67501;BMP180;54349;52.528;19.760;2022-12-22T13:31:16;99563.20;;;22.70
67501;BMP180;54349;52.528;19.760;2022-12-22T13:33:57;99567.20;;;22.70
67501;BMP180;54349;52.528;19.760;2022-12-22T13:36:30;99573.60;;;22.66
67501;BMP180;54349;52.528;19.760;2022-12-22T13:39:11;99567.60;;;22.62
67501;BMP180;54349;52.528;19.760;2022-12-22T13:41:43;99563.80;;;22.60
67501;BMP180;54349;52.528;19.760;2022-12-22T13:44:24;99558.60;;;22.60
67501;BMP180;54349;52.528;19.760;2022-12-22T13:47:02;99562.40;;;22.60
67501;BMP180;54349;52.528;19.760;2022-12-22T13:49:33;99558.40;;;22.60
67501;BMP180;54349;52.528;19.760;2022-12-22T13:52:24;99548.60;;;22.60
67501;BMP180;54349;52.528;19.760;2022-12-22T13:54:52;99552.80;;;22.60
67501;BMP180;54349;52.528;19.760;2022-12-22T13:57:22;99553.40;;;22.60
67501;BMP180;54349;52.528;19.760;2022-12-22T13:59:50;99552.60;;;22.60
67501;BMP180;54349;52.528;19.760;2022-12-22T14:02:20;99553.60;;;22.54
67501;BMP180;54349;52.528;19.760;2022-12-22T14:05:07;99553.00;;;22.50
67501;BMP180;54349;52.528;19.760;2022-12-22T14:07:36;99550.00;;;22.50
67501;BMP180;54349;52.528;19.760;2022-12-22T14:10:06;99544.80;;;22.50
67501;BMP180;54349;52.528;19.760;2022-12-22T14:12:43;99548.80;;;22.50
67501;BMP180;54349;52.528;19.760;2022-12-22T14:15:18;99552.20;;;22.50
67501;BMP180;54349;52.528;19.760;2022-12-22T14:17:47;99550.80;;;22.50
67501;BMP180;54349;52.528;19.760;2022-12-22T14:20:28;99550.40;;;22.50
67501;BMP180;54349;52.528;19.760;2022-12-22T14:23:07;99555.20;;;22.50
67501;BMP180;54349;52.528;19.760;2022-12-22T14:25:41;99556.20;;;22.50
67501;BMP180;54349;52.528;19.760;2022-12-22T14:28:37;99555.20;;;22.50
67501;BMP180;54349;52.528;19.760;2022-12-22T14:31:06;99547.60;;;22.46
67501;BMP180;54349;52.528;19.760;2022-12-22T14:33:35;99544.20;;;22.40
67501;BMP180;54349;52.528;19.760;2022-12-22T14:36:05;99537.40;;;22.40
67501;BMP180;54349;52.528;19.760;2022-12-22T14:38:54;99533.80;;;22.40
67501;BMP180;54349;52.528;19.760;2022-12-22T14:41:41;99536.00;;;22.40
67501;BMP180;54349;52.528;19.760;2022-12-22T14:44:22;99529.40;;;22.40
67501;BMP180;54349;52.528;19.760;2022-12-22T14:49:56;99524.80;;;22.40
67501;BMP180;54349;52.528;19.760;2022-12-22T14:52:37;99526.40;;;22.32
67501;BMP180;54349;52.528;19.760;2022-12-22T14:55:40;99528.00;;;22.30
67501;BMP180;54349;52.528;19.760;2022-12-22T15:00:40;99518.80;;;22.30
67501;BMP180;54349;52.528;19.760;2022-12-22T15:03:33;99520.40;;;22.30
67501;BMP180;54349;52.528;19.760;2022-12-22T15:09:08;99499.40;;;22.30
67501;BMP180;54349;52.528;19.760;2022-12-22T15:12:16;99497.20;;;22.30
67501;BMP180;54349;52.528;19.760;2022-12-22T15:14:45;99496.00;;;22.36
67501;BMP180;54349;52.528;19.760;2022-12-22T15:17:22;99491.00;;;22.40
67501;BMP180;54349;52.528;19.760;2022-12-22T15:19:57;99493.20;;;22.40
67501;BMP180;54349;52.528;19.760;2022-12-22T15:22:26;99490.40;;;22.40
67501;BMP180;54349;52.528;19.760;2022-12-22T15:24:54;99490.20;;;22.40
67501;BMP180;54349;52.528;19.760;2022-12-22T15:27:22;99488.20;;;22.46
67501;BMP180;54349;52.528;19.760;2022-12-22T15:29:50;99486.60;;;22.50
67501;BMP180;54349;52.528;19.760;2022-12-22T15:32:18;99487.60;;;22.50
67501;BMP180;54349;52.528;19.760;2022-12-22T15:34:47;99483.00;;;22.50
67501;BMP180;54349;52.528;19.760;2022-12-22T15:37:15;99481.80;;;22.50
67501;BMP180;54349;52.528;19.760;2022-12-22T15:39:43;99472.20;;;22.50
67501;BMP180;54349;52.528;19.760;2022-12-22T15:42:11;99477.40;;;22.50
67501;BMP180;54349;52.528;19.760;2022-12-22T15:44:39;99478.60;;;22.50
67501;BMP180;54349;52.528;19.760;2022-12-22T15:47:09;99478.00;;;22.42
67501;BMP180;54349;52.528;19.760;2022-12-22T15:49:38;99475.80;;;22.40
67501;BMP180;54349;52.528;19.760;2022-12-22T15:52:09;99472.60;;;22.40
67501;BMP180;54349;52.528;19.760;2022-12-22T15:54:39;99473.40;;;22.40
67501;BMP180;54349;52.528;19.760;2022-12-22T15:57:11;99472.20;;;22.40
67501;BMP180;54349;52.528;19.760;2022-12-22T15:59:40;99468.40;;;22.40
67501;BMP180;54349;52.528;19.760;2022-12-22T16:02:11;99468.00;;;22.40
67501;BMP180;54349;52.528;19.760;2022-12-22T16:04:40;99471.40;;;22.40
67501;BMP180;54349;52.528;19.760;2022-12-22T16:07:11;99475.60;;;22.32
67501;BMP180;54349;52.528;19.760;2022-12-22T16:09:43;99469.60;;;22.30
67501;BMP180;54349;52.528;19.760;2022-12-22T16:12:16;99470.40;;;22.30
67501;BMP180;54349;52.528;19.760;2022-12-22T16:14:49;99471.00;;;22.30
67501;BMP180;54349;52.528;19.760;2022-12-22T16:17:26;99472.20;;;22.30
67501;BMP180;54349;52.528;19.760;2022-12-22T16:19:54;99466.00;;;22.30
67501;BMP180;54349;52.528;19.760;2022-12-22T16:22:31;99465.00;;;22.30
67501;BMP180;54349;52.528;19.760;2022-12-22T16:25:04;99466.20;;;22.28
67501;BMP180;54349;52.528;19.760;2022-12-22T16:27:34;99465.00;;;22.22
67501;BMP180;54349;52.528;19.760;2022-12-22T16:30:04;99460.20;;;22.20
67501;BMP180;54349;52.528;19.760;2022-12-22T16:32:32;99456.00;;;22.20
67501;BMP180;54349;52.528;19.760;2022-12-22T16:35:16;99450.80;;;22.20
67501;BMP180;54349;52.528;19.760;2022-12-22T16:37:46;99450.80;;;22.20